X  Luk Metar data     EHKD De Kooy Airport
Temperatur
10°C Temperatur
5°C Duggpunkt
71% Fugtighed



Vind
27 KM/T
17 MPT
8 M/S
15 KNOB



330°
NNV
Nuværende forhold

For det meste spredte skyer For det meste spredte skyer
Tryk 1002.03 (hPa) - 29.59 (inHg)
Sigt 6 (mil) - 9.7 (km)
Lufthavn
Lufthavnskode EHKD

Lokation: De Kooy Airport
Afstand: 34 (km)

Metar:
EHKD 160955Z AUTO 33015KT 290V040 9999 SCT018 BKN021 BKN025 10/05 Q1002 WHT TEMPO 4000 SHRA FEW010 SCT015CB BKN020

Tid: 16-04-2024 11:55 CEST